Time;durP1;ratioP1;P1;durP2;ratioP2;P2;SDS_P1;SDS_P2;PMS_P1;PMS_P2;Temp;Humidity;BMP_temperature;BMP_pressure;BME280_temperature;BME280_humidity;BME280_pressure;Samples;Min_cycle;Max_cycle;Signal;HPM_P1;HPM_P2
2021/12/30 00:01:21;;;;;;;17.27;4.03;;;13.50;75.40;;;;;;4866868;29;20360;-75
2021/12/30 00:03:48;;;;;;;15.82;4.45;;;13.50;75.40;;;;;;4867489;29;20338;-74
2021/12/30 00:06:21;;;;;;;15.15;3.75;;;13.50;75.20;;;;;;4883225;29;20064;-76
2021/12/30 00:08:48;;;;;;;18.77;5.03;;;13.40;75.30;;;;;;4882988;29;20057;-75
2021/12/30 00:11:14;;;;;;;15.82;4.47;;;13.40;75.20;;;;;;4882948;29;20071;-75
2021/12/30 00:13:44;;;;;;;16.38;4.45;;;13.40;75.20;;;;;;4866504;29;20048;-74
2021/12/30 00:16:12;;;;;;;16.70;4.18;;;13.40;75.20;;;;;;4883265;29;20148;-74
2021/12/30 00:18:38;;;;;;;16.92;4.78;;;13.30;75.10;;;;;;4866778;29;20135;-73
2021/12/30 00:21:04;;;;;;;15.15;4.20;;;13.30;75.30;;;;;;4883144;29;20438;-75
2021/12/30 00:23:30;;;;;;;18.17;3.85;;;13.30;75.30;;;;;;4866633;29;20080;-75
2021/12/30 00:25:55;;;;;;;16.90;4.15;;;13.30;75.10;;;;;;4866402;29;20442;-75
2021/12/30 00:28:23;;;;;;;16.30;4.20;;;13.30;75.10;;;;;;4883018;29;20049;-75
2021/12/30 00:30:51;;;;;;;18.08;4.45;;;13.30;75.10;;;;;;4882139;29;20049;-75
2021/12/30 00:33:17;;;;;;;19.00;4.93;;;13.30;75.10;;;;;;4882638;29;20053;-75
2021/12/30 00:35:43;;;;;;;17.58;4.47;;;13.30;75.00;;;;;;4866093;29;20132;-75
2021/12/30 00:38:09;;;;;;;15.85;4.85;;;13.30;75.10;;;;;;4882572;29;20152;-73
2021/12/30 00:40:37;;;;;;;17.48;3.70;;;13.30;75.20;;;;;;4882888;29;20057;-73
2021/12/30 00:43:04;;;;;;;17.50;4.38;;;13.30;75.00;;;;;;4882736;29;20378;-75
2021/12/30 00:45:32;;;;;;;24.65;5.22;;;13.30;75.00;;;;;;4881968;29;20047;-74
2021/12/30 00:47:57;;;;;;;18.08;4.95;;;13.30;75.00;;;;;;4866064;29;20053;-75
2021/12/30 00:50:24;;;;;;;17.42;4.75;;;13.30;75.10;;;;;;4865703;29;20057;-74
2021/12/30 00:52:50;;;;;;;17.33;4.47;;;13.30;75.10;;;;;;4882678;29;20056;-74
2021/12/30 00:55:16;;;;;;;18.55;4.93;;;13.30;75.00;;;;;;4866080;29;20582;-73
2021/12/30 00:57:42;;;;;;;15.70;4.70;;;13.20;74.90;;;;;;4866237;29;20124;-75
2021/12/30 01:00:14;;;;;;;17.55;5.63;;;13.20;74.90;;;;;;4882093;29;20064;-73
2021/12/30 01:02:39;;;;;;;19.77;5.63;;;13.20;74.70;;;;;;4882345;29;20052;-74
2021/12/30 01:05:06;;;;;;;19.98;5.85;;;13.20;75.00;;;;;;4865941;29;20331;-74
2021/12/30 01:07:32;;;;;;;19.40;5.38;;;13.20;75.00;;;;;;4865740;29;20053;-75
2021/12/30 01:09:59;;;;;;;21.88;5.90;;;13.20;74.90;;;;;;4881545;29;20060;-76
2021/12/30 01:12:25;;;;;;;18.75;5.07;;;13.20;74.80;;;;;;4882184;29;20049;-75
2021/12/30 01:14:50;;;;;;;27.25;6.22;;;13.20;74.90;;;;;;4866361;29;20467;-75
2021/12/30 01:17:26;;;;;;;21.98;5.10;;;13.20;74.80;;;;;;4865739;29;20059;-76
2021/12/30 01:19:52;;;;;;;22.70;5.80;;;13.20;74.90;;;;;;4881907;29;20053;-75
2021/12/30 01:22:20;;;;;;;20.40;5.72;;;13.10;75.00;;;;;;4881642;29;20057;-73
2021/12/30 01:24:47;;;;;;;23.98;5.70;;;13.20;74.90;;;;;;4881678;29;20059;-74
2021/12/30 01:27:13;;;;;;;23.08;5.47;;;13.20;74.90;;;;;;4881968;29;20362;-74
2021/12/30 01:29:38;;;;;;;16.83;5.03;;;13.20;74.90;;;;;;4882358;29;20055;-75
2021/12/30 01:32:04;;;;;;;19.88;5.78;;;13.20;75.00;;;;;;4882186;29;20049;-74
2021/12/30 01:34:32;;;;;;;22.35;5.68;;;13.20;74.90;;;;;;4881487;29;20072;-73
2021/12/30 01:37:01;;;;;;;18.48;5.03;;;13.20;74.70;;;;;;4865412;29;20057;-75
2021/12/30 01:39:28;;;;;;;20.77;5.22;;;13.20;74.60;;;;;;4865177;29;20048;-75
2021/12/30 01:41:54;;;;;;;23.70;5.30;;;13.10;74.70;;;;;;4881052;29;20384;-74
2021/12/30 01:44:21;;;;;;;22.25;5.20;;;13.10;74.80;;;;;;4881670;29;20056;-76
2021/12/30 01:46:47;;;;;;;21.00;4.43;;;13.10;74.80;;;;;;4881150;29;20045;-74
2021/12/30 01:49:14;;;;;;;22.92;5.03;;;13.10;74.90;;;;;;4881329;29;20161;-74
2021/12/30 01:51:42;;;;;;;18.13;5.25;;;13.10;74.80;;;;;;4881040;29;20068;-76
2021/12/30 01:54:09;;;;;;;20.45;5.05;;;13.10;74.90;;;;;;4865637;29;20053;-75
2021/12/30 01:56:35;;;;;;;21.10;5.30;;;13.10;75.00;;;;;;4864851;29;20049;-75
2021/12/30 01:59:02;;;;;;;18.80;5.05;;;13.10;74.90;;;;;;4881197;29;20200;-74
2021/12/30 02:01:28;;;;;;;18.88;4.80;;;13.10;74.90;;;;;;4881617;29;20060;-74
2021/12/30 02:03:54;;;;;;;20.65;5.47;;;13.10;75.00;;;;;;4881017;29;20476;-74
2021/12/30 02:06:20;;;;;;;17.58;4.55;;;13.10;74.90;;;;;;4880869;29;20049;-74
2021/12/30 02:08:46;;;;;;;19.85;5.20;;;13.10;74.90;;;;;;4881066;29;20060;-74
2021/12/30 02:11:12;;;;;;;18.52;5.25;;;13.10;75.00;;;;;;4864599;29;20053;-75
2021/12/30 02:13:37;;;;;;;20.33;5.05;;;13.10;75.10;;;;;;4864551;29;20132;-75
2021/12/30 02:16:04;;;;;;;19.88;4.63;;;13.10;75.00;;;;;;4881231;29;20045;-75
2021/12/30 02:18:30;;;;;;;23.15;5.43;;;13.10;75.00;;;;;;4880824;29;20052;-73
2021/12/30 02:20:58;;;;;;;19.10;5.15;;;13.20;75.20;;;;;;4880736;29;20055;-75
2021/12/30 02:23:34;;;;;;;20.13;4.50;;;13.20;75.20;;;;;;4864966;29;20049;-74
2021/12/30 02:26:04;;;;;;;16.52;5.47;;;13.20;74.80;;;;;;4880802;29;20465;-75
2021/12/30 02:28:32;;;;;;;20.65;5.45;;;13.20;75.20;;;;;;4881048;29;20056;-75
2021/12/30 02:31:00;;;;;;;17.92;4.07;;;13.20;75.20;;;;;;4864765;29;20064;-75
2021/12/30 02:33:27;;;;;;;20.23;4.97;;;13.20;75.10;;;;;;4880532;29;20415;-74
2021/12/30 02:35:54;;;;;;;17.65;5.18;;;13.20;75.00;;;;;;4881045;29;20060;-74
2021/12/30 02:38:21;;;;;;;19.15;5.57;;;13.30;75.30;;;;;;4880901;29;20096;-76
2021/12/30 02:40:50;;;;;;;17.92;5.30;;;13.30;75.10;;;;;;4880924;29;20385;-73
2021/12/30 02:43:20;;;;;;;21.52;5.40;;;13.30;75.10;;;;;;4864536;29;20136;-74
2021/12/30 02:45:46;;;;;;;22.00;5.25;;;13.30;75.10;;;;;;4880524;29;20492;-75
2021/12/30 02:48:23;;;;;;;18.42;4.65;;;13.30;75.00;;;;;;4880662;29;20056;-74
2021/12/30 02:50:52;;;;;;;17.10;4.80;;;13.20;75.00;;;;;;4880560;29;20064;-75
2021/12/30 02:53:20;;;;;;;16.35;4.72;;;13.20;74.70;;;;;;4882808;29;20103;-74
2021/12/30 02:55:47;;;;;;;18.05;4.57;;;13.10;74.90;;;;;;4868087;29;20060;-74
2021/12/30 02:58:13;;;;;;;22.05;6.35;;;13.20;75.00;;;;;;4883996;29;20060;-75
2021/12/30 03:00:40;;;;;;;24.58;5.47;;;13.20;75.30;;;;;;4884142;29;20057;-74
2021/12/30 03:03:06;;;;;;;15.70;4.35;;;13.20;75.20;;;;;;4884276;29;20417;-73
2021/12/30 03:05:32;;;;;;;21.55;4.93;;;13.20;75.10;;;;;;4867736;29;20128;-74
2021/12/30 03:07:58;;;;;;;18.33;5.07;;;13.20;75.20;;;;;;4867727;29;20049;-76
2021/12/30 03:10:27;;;;;;;21.98;5.07;;;13.20;75.20;;;;;;4883905;29;20045;-74
2021/12/30 03:12:57;;;;;;;18.60;4.72;;;13.10;75.30;;;;;;4867608;29;20053;-74
2021/12/30 03:15:26;;;;;;;20.92;4.82;;;13.20;75.10;;;;;;4883963;29;20049;-74
2021/12/30 03:17:52;;;;;;;17.45;4.88;;;13.20;75.20;;;;;;4867942;29;20116;-75
2021/12/30 03:20:18;;;;;;;20.98;5.15;;;13.20;75.20;;;;;;4867857;29;20434;-74
2021/12/30 03:22:45;;;;;;;15.88;4.65;;;13.10;75.20;;;;;;4884243;29;20093;-76
2021/12/30 03:25:13;;;;;;;16.73;4.72;;;13.10;75.30;;;;;;4867655;29;20413;-76
2021/12/30 03:27:39;;;;;;;18.63;4.40;;;13.10;75.40;;;;;;4883569;29;20136;-74
2021/12/30 03:30:08;;;;;;;18.00;4.65;;;13.20;75.40;;;;;;4884333;29;20120;-76
2021/12/30 03:32:34;;;;;;;19.17;5.03;;;13.20;75.40;;;;;;4867874;29;20184;-75
2021/12/30 03:35:00;;;;;;;16.95;4.57;;;13.20;75.40;;;;;;4867382;29;20136;-75
2021/12/30 03:37:25;;;;;;;19.10;5.20;;;13.20;75.50;;;;;;4883799;29;20049;-74
2021/12/30 03:39:51;;;;;;;21.25;5.70;;;13.10;75.50;;;;;;4883472;29;20389;-74
2021/12/30 03:42:17;;;;;;;22.60;5.25;;;13.20;75.60;;;;;;4883482;29;20067;-75
2021/12/30 03:44:44;;;;;;;20.67;4.88;;;13.20;75.60;;;;;;4867010;29;20436;-74
2021/12/30 03:47:15;;;;;;;16.65;4.78;;;13.10;75.70;;;;;;4867896;29;20067;-76
2021/12/30 03:49:46;;;;;;;22.92;5.57;;;13.20;75.80;;;;;;4867336;29;20092;-76
2021/12/30 03:52:23;;;;;;;16.02;4.50;;;13.20;75.80;;;;;;4851676;29;20449;-74
2021/12/30 03:54:49;;;;;;;20.98;5.45;;;13.10;75.80;;;;;;4866901;29;20061;-74
2021/12/30 03:57:15;;;;;;;19.88;5.30;;;13.10;75.80;;;;;;4883767;29;20053;-76
2021/12/30 03:59:41;;;;;;;18.02;4.78;;;13.10;75.90;;;;;;4883138;29;20060;-75
2021/12/30 04:02:07;;;;;;;15.77;4.40;;;13.10;75.90;;;;;;4883603;29;20507;-74
2021/12/30 04:04:33;;;;;;;15.25;4.15;;;13.10;76.00;;;;;;4866221;29;20191;-75
2021/12/30 04:06:59;;;;;;;21.88;5.57;;;13.10;76.00;;;;;;4851553;29;20160;-73
2021/12/30 04:09:26;;;;;;;17.10;4.90;;;13.10;76.00;;;;;;4882942;29;20525;-75
2021/12/30 04:11:51;;;;;;;19.80;4.75;;;13.10;76.20;;;;;;4882840;29;20473;-74
2021/12/30 04:14:17;;;;;;;18.40;4.90;;;13.10;76.10;;;;;;4866624;29;20053;-74
2021/12/30 04:16:43;;;;;;;20.50;4.97;;;13.10;76.20;;;;;;4882825;29;20081;-73
2021/12/30 04:19:08;;;;;;;21.23;5.40;;;13.10;76.30;;;;;;4882901;29;20064;-75
2021/12/30 04:21:34;;;;;;;19.08;4.80;;;13.10;76.40;;;;;;4882820;29;20100;-74
2021/12/30 04:24:00;;;;;;;17.25;5.03;;;13.10;76.50;;;;;;4866324;29;20063;-75
2021/12/30 04:26:27;;;;;;;17.92;5.63;;;13.10;76.40;;;;;;4883234;29;20045;-76
2021/12/30 04:28:52;;;;;;;19.52;5.30;;;13.10;76.50;;;;;;4866643;29;20049;-74
2021/12/30 04:31:18;;;;;;;22.65;5.35;;;13.10;76.50;;;;;;4866438;29;20473;-75
2021/12/30 04:33:44;;;;;;;22.70;5.38;;;13.10;76.50;;;;;;4882608;29;20056;-75
2021/12/30 04:36:10;;;;;;;20.42;4.85;;;13.10;76.50;;;;;;4850704;29;20430;-75
2021/12/30 04:38:37;;;;;;;20.13;4.78;;;13.10;76.60;;;;;;4850849;29;20128;-75
2021/12/30 04:41:04;;;;;;;18.08;4.82;;;13.10;76.60;;;;;;4866246;29;20067;-76
2021/12/30 04:43:31;;;;;;;19.30;4.95;;;13.20;77.00;;;;;;4850571;29;20056;-75
2021/12/30 04:45:59;;;;;;;23.63;4.75;;;13.20;76.70;;;;;;4882372;29;20094;-74
2021/12/30 04:48:25;;;;;;;16.67;4.80;;;13.10;76.80;;;;;;4882087;29;20048;-74
2021/12/30 04:50:51;;;;;;;19.85;4.78;;;13.10;76.80;;;;;;4882081;29;20124;-75
2021/12/30 04:53:20;;;;;;;20.35;4.82;;;13.10;76.80;;;;;;4878771;29;20056;-73
2021/12/30 04:55:47;;;;;;;21.52;5.22;;;13.20;76.90;;;;;;4869623;29;20048;-75
2021/12/30 04:58:14;;;;;;;19.80;5.53;;;13.20;76.90;;;;;;4881817;29;20067;-75
2021/12/30 05:00:40;;;;;;;17.90;5.43;;;13.20;77.00;;;;;;4881989;29;20048;-74
2021/12/30 05:05:31;;;;;;;20.90;4.80;;;13.20;77.10;;;;;;4879718;29;20049;-75
2021/12/30 05:07:57;;;;;;;22.98;5.90;;;13.30;76.70;;;;;;4877465;29;20037;-75
2021/12/30 05:10:23;;;;;;;20.13;5.05;;;13.40;76.40;;;;;;4900881;29;20056;-76
2021/12/30 05:12:49;;;;;;;26.52;7.22;;;13.40;76.10;;;;;;4884537;29;20056;-77
2021/12/30 05:15:15;;;;;;;27.77;6.95;;;13.50;75.90;;;;;;4864413;29;20068;-74
2021/12/30 05:17:42;;;;;;;25.83;6.78;;;13.50;75.60;;;;;;4882171;29;20131;-75
2021/12/30 05:20:09;;;;;;;27.63;7.00;;;13.50;75.50;;;;;;4880116;29;20055;-76
2021/12/30 05:22:35;;;;;;;23.27;6.38;;;13.60;75.80;;;;;;4880130;29;20468;-78
2021/12/30 05:25:04;;;;;;;22.05;5.82;;;13.60;75.60;;;;;;4899125;29;20044;-73
2021/12/30 05:27:30;;;;;;;21.50;5.45;;;13.70;75.20;;;;;;4888372;29;20086;-83
2021/12/30 05:29:55;;;;;;;29.02;5.55;;;13.90;74.90;;;;;;4881740;29;20029;-75
2021/12/30 05:32:21;;;;;;;21.45;5.45;;;14.30;74.70;;;;;;4881560;29;20041;-74
2021/12/30 05:34:47;;;;;;;33.40;6.95;;;14.60;74.20;;;;;;4881883;29;20053;-74
2021/12/30 05:37:12;;;;;;;24.65;5.65;;;14.90;73.90;;;;;;4881839;29;20120;-75
2021/12/30 05:39:41;;;;;;;30.25;6.57;;;15.10;73.60;;;;;;4893526;29;20040;-77
2021/12/30 05:42:07;;;;;;;27.38;6.10;;;15.30;73.40;;;;;;4900689;29;20064;-75
2021/12/30 05:44:33;;;;;;;20.92;5.30;;;15.40;73.10;;;;;;4883921;29;20091;-75
2021/12/30 05:46:59;;;;;;;20.40;4.93;;;15.50;72.90;;;;;;4900112;29;20156;-74
2021/12/30 05:49:24;;;;;;;18.85;5.28;;;15.50;72.70;;;;;;4883679;29;20053;-78
2021/12/30 05:51:50;;;;;;;21.13;5.05;;;15.60;72.80;;;;;;4899789;29;20048;-75
2021/12/30 05:54:16;;;;;;;23.10;5.10;;;15.60;72.80;;;;;;4900421;29;20056;-76
2021/12/30 05:56:41;;;;;;;17.67;5.30;;;15.60;73.00;;;;;;4883445;29;20444;-76
2021/12/30 05:59:07;;;;;;;17.25;4.65;;;15.60;73.10;;;;;;4900650;29;20063;-76
2021/12/30 06:01:33;;;;;;;17.85;5.13;;;15.60;73.20;;;;;;4883329;29;20430;-74
2021/12/30 06:03:59;;;;;;;13.93;4.07;;;15.70;73.10;;;;;;4883307;29;20052;-74
2021/12/30 06:06:25;;;;;;;16.02;4.93;;;15.70;73.10;;;;;;4900010;29;20104;-76
2021/12/30 06:08:55;;;;;;;17.65;4.60;;;15.80;73.20;;;;;;4899227;29;20048;-74
2021/12/30 06:11:21;;;;;;;16.10;4.13;;;15.80;73.30;;;;;;4899917;29;20095;-75
2021/12/30 06:13:47;;;;;;;17.15;4.97;;;15.80;73.30;;;;;;4883047;29;20063;-75
2021/12/30 06:16:12;;;;;;;17.13;4.13;;;15.90;73.40;;;;;;4887593;29;20049;-75
2021/12/30 06:18:38;;;;;;;16.98;4.00;;;15.90;73.50;;;;;;4881788;29;20156;-76
2021/12/30 06:21:04;;;;;;;15.90;4.10;;;16.00;73.50;;;;;;4881745;29;20084;-75
2021/12/30 06:23:30;;;;;;;17.92;5.75;;;16.00;73.50;;;;;;4849674;29;20101;-75
2021/12/30 06:25:55;;;;;;;14.68;5.15;;;16.00;70.60;;;;;;4864238;29;20105;-78
2021/12/30 06:28:21;;;;;;;16.60;5.22;;;15.00;72.40;;;;;;4880775;29;20045;-73
2021/12/30 06:30:47;;;;;;;16.15;4.35;;;14.60;74.60;;;;;;4884960;29;20351;-74
2021/12/30 06:33:13;;;;;;;15.80;3.75;;;15.10;77.20;;;;;;4881025;29;20060;-75
2021/12/30 06:35:39;;;;;;;17.77;4.03;;;15.40;76.70;;;;;;4867912;29;20114;-74
2021/12/30 06:38:05;;;;;;;17.10;3.88;;;15.70;75.40;;;;;;4868407;29;20060;-76
2021/12/30 06:40:31;;;;;;;14.55;3.40;;;16.00;74.70;;;;;;4884684;29;20051;-77
2021/12/30 06:42:57;;;;;;;12.45;3.42;;;16.20;74.10;;;;;;4882624;29;20041;-75
2021/12/30 06:45:23;;;;;;;14.20;3.53;;;16.40;73.50;;;;;;4867693;29;20049;-75
2021/12/30 06:47:49;;;;;;;9.85;2.97;;;16.50;73.10;;;;;;4877501;29;20060;-77
2021/12/30 06:50:17;;;;;;;14.27;3.20;;;16.60;72.90;;;;;;4900631;29;20124;-76
2021/12/30 06:52:46;;;;;;;10.77;2.63;;;16.60;72.70;;;;;;4868599;29;20357;-75
2021/12/30 06:55:13;;;;;;;10.32;2.88;;;16.60;72.60;;;;;;4884401;29;20052;-74
2021/12/30 06:57:40;;;;;;;11.00;2.70;;;16.60;72.40;;;;;;4879900;29;20085;-75
2021/12/30 07:00:09;;;;;;;8.10;2.80;;;16.70;72.10;;;;;;4878744;29;20071;-75
2021/12/30 07:02:35;;;;;;;13.52;2.97;;;16.80;72.10;;;;;;4880822;29;20132;-74
2021/12/30 07:05:03;;;;;;;8.10;2.70;;;16.70;72.00;;;;;;4877655;29;20060;-76
2021/12/30 07:07:28;;;;;;;10.15;3.05;;;16.70;72.00;;;;;;4880454;29;20054;-76
2021/12/30 07:09:54;;;;;;;8.63;2.00;;;16.70;72.10;;;;;;4867213;29;20087;-76
2021/12/30 07:12:20;;;;;;;12.18;2.92;;;16.70;72.20;;;;;;4884429;29;20512;-73
2021/12/30 07:14:45;;;;;;;9.60;2.13;;;16.80;72.10;;;;;;4868017;29;20476;-73
2021/12/30 07:17:11;;;;;;;11.35;2.40;;;16.80;72.00;;;;;;4864294;29;20077;-76
2021/12/30 07:19:37;;;;;;;11.73;2.30;;;16.80;72.10;;;;;;4866108;29;20053;-75
2021/12/30 07:22:03;;;;;;;8.98;2.38;;;16.80;72.10;;;;;;4874433;29;20177;-75
2021/12/30 07:24:29;;;;;;;5.13;1.83;;;16.80;72.20;;;;;;4878540;29;20407;-78
2021/12/30 07:26:54;;;;;;;9.20;2.30;;;16.70;72.30;;;;;;4881730;29;20049;-76
2021/12/30 07:29:20;;;;;;;8.95;2.05;;;16.70;72.50;;;;;;4875584;29;20051;-77
2021/12/30 07:31:46;;;;;;;9.00;2.05;;;16.60;72.40;;;;;;4881072;29;20101;-78
2021/12/30 07:34:13;;;;;;;8.60;2.00;;;16.60;72.60;;;;;;4883429;29;20057;-76
2021/12/30 07:36:38;;;;;;;11.20;1.88;;;16.50;72.70;;;;;;4882708;29;20092;-77
2021/12/30 07:39:06;;;;;;;10.18;2.00;;;16.50;72.90;;;;;;4882483;29;20080;-76
2021/12/30 07:41:31;;;;;;;13.45;1.85;;;16.50;73.00;;;;;;4883440;29;20053;-76
2021/12/30 07:43:57;;;;;;;11.48;1.70;;;16.50;73.10;;;;;;4883828;29;20480;-75
2021/12/30 07:46:23;;;;;;;11.90;2.10;;;16.40;73.10;;;;;;4883082;29;20048;-76
2021/12/30 07:48:49;;;;;;;5.70;1.85;;;16.50;73.30;;;;;;4883990;29;20049;-76
2021/12/30 07:51:15;;;;;;;14.73;1.77;;;16.50;73.30;;;;;;4883690;29;20085;-75
2021/12/30 07:53:40;;;;;;;9.38;1.95;;;16.50;73.80;;;;;;4876690;29;20052;-76
2021/12/30 07:56:09;;;;;;;7.45;1.70;;;16.50;73.10;;;;;;4883028;29;20048;-75
2021/12/30 07:58:35;;;;;;;9.77;1.73;;;16.50;73.00;;;;;;4884006;29;20456;-73
2021/12/30 08:01:01;;;;;;;9.38;1.73;;;16.60;72.90;;;;;;4883180;29;20148;-74
2021/12/30 08:03:27;;;;;;;6.28;1.30;;;16.60;73.00;;;;;;4883049;29;20049;-73
2021/12/30 08:05:53;;;;;;;15.05;1.63;;;16.60;72.90;;;;;;4883134;29;20418;-73
2021/12/30 08:08:19;;;;;;;12.25;1.63;;;16.70;73.00;;;;;;4866995;29;20079;-74
2021/12/30 08:10:44;;;;;;;13.20;1.63;;;16.70;73.00;;;;;;4883044;29;20041;-73
2021/12/30 08:13:10;;;;;;;10.32;1.52;;;16.80;72.90;;;;;;4882787;29;20052;-73
2021/12/30 08:15:36;;;;;;;10.00;1.90;;;16.80;72.90;;;;;;4882907;29;20045;-75
2021/12/30 08:18:02;;;;;;;9.85;1.48;;;16.90;72.70;;;;;;4882961;29;20099;-72
2021/12/30 08:20:28;;;;;;;9.85;1.80;;;17.00;72.60;;;;;;4883216;29;20049;-73
2021/12/30 08:22:54;;;;;;;10.55;1.83;;;17.00;72.60;;;;;;4866629;29;20220;-73
2021/12/30 08:25:21;;;;;;;5.13;1.00;;;17.00;72.60;;;;;;4865721;29;20135;-75
2021/12/30 08:27:48;;;;;;;8.20;1.20;;;17.00;72.60;;;;;;4846823;29;20057;-72
2021/12/30 08:30:16;;;;;;;4.95;1.23;;;17.10;72.40;;;;;;4882353;29;20056;-72
2021/12/30 08:32:44;;;;;;;7.68;1.25;;;17.10;72.30;;;;;;4882190;29;20045;-74
2021/12/30 08:35:12;;;;;;;5.90;1.20;;;17.10;72.20;;;;;;4885034;29;20084;-74
2021/12/30 08:37:38;;;;;;;9.95;1.80;;;17.20;72.10;;;;;;4866312;29;20053;-73
2021/12/30 08:40:07;;;;;;;8.70;1.45;;;17.20;72.50;;;;;;4882559;29;20096;-74
2021/12/30 08:42:33;;;;;;;7.03;1.33;;;17.10;71.90;;;;;;4882488;29;20453;-75
2021/12/30 08:45:00;;;;;;;9.38;1.60;;;17.20;72.00;;;;;;4882253;29;20059;-74
2021/12/30 08:47:27;;;;;;;5.95;1.40;;;17.20;71.80;;;;;;4882359;29;20049;-76
2021/12/30 08:49:54;;;;;;;7.72;2.15;;;17.20;71.90;;;;;;4881794;29;20103;-76
2021/12/30 08:52:22;;;;;;;7.85;1.70;;;17.20;72.10;;;;;;4859402;29;20057;-77
2021/12/30 08:54:48;;;;;;;7.50;1.52;;;17.20;71.60;;;;;;4871405;29;20063;-76
2021/12/30 08:57:17;;;;;;;10.55;1.85;;;17.20;71.80;;;;;;4882128;29;20116;-77
2021/12/30 08:59:44;;;;;;;13.57;2.47;;;17.20;71.80;;;;;;4882031;29;20057;-80
2021/12/30 09:02:10;;;;;;;11.68;1.73;;;17.10;71.70;;;;;;4874702;29;20541;-78
2021/12/30 09:04:36;;;;;;;6.40;1.30;;;17.20;71.90;;;;;;4881983;29;20414;-78
2021/12/30 09:07:03;;;;;;;10.88;1.80;;;17.00;72.60;;;;;;4882044;29;20045;-79
2021/12/30 09:09:29;;;;;;;7.38;1.55;;;17.00;72.40;;;;;;4882812;29;20049;-77
2021/12/30 09:11:55;;;;;;;11.15;2.00;;;17.10;72.30;;;;;;4882244;29;20517;-77
2021/12/30 09:14:21;;;;;;;5.45;1.05;;;17.10;72.10;;;;;;4827402;29;20160;-78
2021/12/30 09:16:48;;;;;;;6.97;1.65;;;17.10;72.10;;;;;;4877347;29;20104;-78
2021/12/30 09:19:15;;;;;;;7.35;1.48;;;17.20;72.00;;;;;;4865228;29;20056;-79
2021/12/30 09:21:42;;;;;;;11.40;2.50;;;17.20;71.90;;;;;;4881893;29;20131;-79
2021/12/30 09:24:10;;;;;;;9.95;1.67;;;17.20;71.90;;;;;;4881868;29;20064;-77
2021/12/30 09:26:35;;;;;;;9.27;1.30;;;17.20;72.00;;;;;;4881566;29;20480;-77
2021/12/30 09:29:06;;;;;;;10.40;2.03;;;17.20;72.00;;;;;;4862306;29;20044;-78
2021/12/30 09:31:32;;;;;;;9.32;1.95;;;17.20;72.20;;;;;;4846631;29;20453;-75
2021/12/30 09:33:57;;;;;;;17.15;2.30;;;17.20;72.30;;;;;;4846342;29;20102;-77
2021/12/30 09:36:26;;;;;;;9.30;1.80;;;17.20;72.90;;;;;;4863064;29;20053;-76
2021/12/30 09:38:52;;;;;;;13.63;2.58;;;17.20;72.30;;;;;;4862962;29;20092;-73
2021/12/30 09:41:21;;;;;;;9.43;1.65;;;17.20;72.40;;;;;;4862910;29;20357;-77
2021/12/30 09:43:46;;;;;;;10.90;1.60;;;17.20;72.30;;;;;;4862887;29;20069;-77
2021/12/30 09:46:13;;;;;;;13.07;2.33;;;17.20;72.10;;;;;;4862995;29;20128;-75
2021/12/30 09:48:38;;;;;;;9.98;2.25;;;17.20;72.10;;;;;;4846471;29;20049;-76
2021/12/30 09:51:06;;;;;;;10.27;1.95;;;17.20;71.90;;;;;;4831441;29;20194;-76
2021/12/30 09:53:32;;;;;;;9.85;2.42;;;17.30;72.50;;;;;;4862646;29;20510;-76
2021/12/30 09:55:59;;;;;;;9.43;1.92;;;17.20;71.80;;;;;;4862626;29;20099;-76
2021/12/30 09:58:26;;;;;;;9.75;2.42;;;17.20;71.70;;;;;;4862564;29;20140;-77
2021/12/30 10:00:52;;;;;;;10.07;2.28;;;17.20;71.70;;;;;;4862980;29;20343;-75
2021/12/30 10:03:18;;;;;;;15.13;2.80;;;17.20;71.60;;;;;;4846079;29;20052;-77
2021/12/30 10:05:44;;;;;;;9.27;2.10;;;17.20;71.60;;;;;;4846576;29;20065;-76
2021/12/30 10:08:16;;;;;;;10.57;2.00;;;17.20;71.60;;;;;;4862747;29;20060;-80
2021/12/30 10:10:48;;;;;;;6.88;1.70;;;17.20;71.60;;;;;;4862204;29;20438;-77
2021/12/30 10:13:18;;;;;;;10.00;2.50;;;17.20;71.40;;;;;;4846594;29;20049;-75
2021/12/30 10:15:48;;;;;;;8.73;2.67;;;17.20;71.10;;;;;;4862641;29;20076;-77
2021/12/30 10:18:14;;;;;;;9.10;1.80;;;17.20;71.20;;;;;;4846454;29;20446;-79
2021/12/30 10:20:42;;;;;;;8.48;1.70;;;17.20;71.20;;;;;;4862796;29;20050;-77
2021/12/30 10:23:12;;;;;;;11.60;2.30;;;17.20;71.20;;;;;;4862324;29;20109;-74
2021/12/30 10:25:41;;;;;;;9.93;2.03;;;17.20;71.30;;;;;;4862345;29;20046;-73
2021/12/30 10:28:31;;;;;;;9.43;1.50;;;17.20;71.40;;;;;;4846204;29;20053;-75
2021/12/30 10:31:12;;;;;;;7.05;1.88;;;17.20;71.80;;;;;;4862678;29;20046;-75
2021/12/30 10:34:06;;;;;;;7.80;2.28;;;17.10;71.60;;;;;;4862265;29;20053;-74
2021/12/30 10:36:40;;;;;;;10.82;3.00;;;17.20;71.60;;;;;;4862519;29;20061;-75
2021/12/30 10:39:25;;;;;;;26.25;3.13;;;17.20;71.60;;;;;;4862553;29;20064;-74
2021/12/30 10:41:59;;;;;;;10.77;2.80;;;17.20;72.00;;;;;;4858415;29;20069;-75
2021/12/30 10:44:45;;;;;;;13.48;2.60;;;17.20;72.10;;;;;;4860210;29;20050;-74
2021/12/30 10:47:10;;;;;;;15.43;3.25;;;17.20;72.20;;;;;;4830260;29;20533;-76
2021/12/30 10:49:36;;;;;;;10.82;2.88;;;17.20;72.20;;;;;;4862788;29;20132;-76
2021/12/30 10:52:06;;;;;;;11.15;2.60;;;17.10;72.00;;;;;;4862160;29;20053;-75
2021/12/30 10:54:34;;;;;;;12.70;2.70;;;17.20;72.20;;;;;;4862050;29;20088;-77
2021/12/30 10:57:05;;;;;;;18.83;3.67;;;17.20;72.40;;;;;;4862280;29;20117;-74
2021/12/30 10:59:35;;;;;;;15.80;3.63;;;17.10;72.60;;;;;;4862342;29;20189;-77
2021/12/30 11:02:26;;;;;;;15.73;3.65;;;17.10;72.60;;;;;;4862260;29;20081;-76
2021/12/30 11:04:57;;;;;;;18.67;3.75;;;17.10;72.60;;;;;;4861821;29;20069;-76
2021/12/30 11:07:40;;;;;;;16.15;3.35;;;17.10;72.60;;;;;;4862079;29;20132;-75
2021/12/30 11:10:06;;;;;;;19.58;4.85;;;17.10;72.50;;;;;;4845838;29;20064;-73
2021/12/30 11:12:38;;;;;;;16.80;4.10;;;17.10;72.50;;;;;;4862224;29;20045;-76
2021/12/30 11:15:20;;;;;;;16.98;3.80;;;17.00;72.50;;;;;;4846185;29;20120;-76
2021/12/30 11:17:47;;;;;;;16.67;4.32;;;17.00;72.30;;;;;;4883914;29;20045;-77
2021/12/30 11:20:16;;;;;;;24.02;4.18;;;17.00;72.50;;;;;;4883918;29;20049;-78
2021/12/30 11:22:42;;;;;;;18.90;4.55;;;17.00;72.30;;;;;;4867458;29;20055;-78
2021/12/30 11:25:10;;;;;;;16.75;4.47;;;17.00;72.10;;;;;;4884220;29;20053;-77
2021/12/30 11:27:36;;;;;;;23.55;5.03;;;17.00;72.10;;;;;;4883707;29;20045;-77
2021/12/30 11:30:08;;;;;;;18.70;5.05;;;17.00;72.50;;;;;;4883578;29;20044;-77
2021/12/30 11:32:36;;;;;;;25.08;5.35;;;17.00;71.70;;;;;;4883027;29;20074;-78
2021/12/30 11:35:03;;;;;;;20.95;5.50;;;16.90;71.50;;;;;;4867553;29;20057;-78
2021/12/30 11:37:31;;;;;;;14.48;5.25;;;16.80;71.40;;;;;;4884210;29;20147;-78
2021/12/30 11:39:59;;;;;;;21.17;5.75;;;16.80;71.30;;;;;;4883642;29;20055;-78
2021/12/30 11:42:36;;;;;;;23.15;5.22;;;16.80;71.30;;;;;;4867945;29;20137;-77
2021/12/30 11:45:04;;;;;;;22.80;4.68;;;16.80;71.40;;;;;;4851465;29;20068;-78
2021/12/30 11:47:33;;;;;;;26.25;6.40;;;16.70;71.40;;;;;;4867502;29;20081;-78
2021/12/30 11:50:40;;;;;;;18.65;5.97;;;16.70;71.50;;;;;;4885167;29;20075;-77
2021/12/30 11:53:25;;;;;;;19.52;4.78;;;16.60;71.50;;;;;;4829077;29;20061;-76
2021/12/30 11:55:59;;;;;;;16.25;4.93;;;16.70;71.70;;;;;;4844026;29;20420;-77
2021/12/30 11:58:40;;;;;;;14.98;5.18;;;16.60;71.80;;;;;;4866631;29;20414;-79
2021/12/30 12:01:17;;;;;;;18.92;4.78;;;16.60;71.90;;;;;;4883137;29;20068;-78
2021/12/30 12:04:15;;;;;;;17.58;4.53;;;16.60;72.00;;;;;;4853332;29;20077;-77
2021/12/30 12:06:48;;;;;;;16.75;4.88;;;16.50;72.00;;;;;;4860161;29;20073;-75
2021/12/30 12:09:22;;;;;;;19.55;4.82;;;16.60;72.40;;;;;;4832825;29;20046;-76
2021/12/30 12:11:56;;;;;;;21.77;5.65;;;16.50;72.70;;;;;;4865699;29;20089;-76
2021/12/30 12:14:26;;;;;;;20.85;4.75;;;16.50;72.90;;;;;;4866750;29;20060;-75
2021/12/30 12:17:00;;;;;;;18.55;4.35;;;16.50;72.80;;;;;;4869342;29;20056;-76
2021/12/30 12:19:35;;;;;;;17.15;4.55;;;16.60;72.80;;;;;;4867757;29;20041;-74
2021/12/30 12:22:07;;;;;;;14.90;4.20;;;16.70;72.90;;;;;;4882822;29;20381;-75
2021/12/30 12:24:39;;;;;;;21.45;4.75;;;16.70;72.80;;;;;;4887501;29;20419;-71
2021/12/30 12:27:29;;;;;;;19.38;4.53;;;16.70;72.70;;;;;;4866567;29;20049;-74
2021/12/30 12:29:57;;;;;;;15.38;4.03;;;16.80;72.60;;;;;;4877454;29;20690;-77
2021/12/30 12:32:30;;;;;;;15.10;5.00;;;16.80;72.60;;;;;;4864136;29;20045;-75
2021/12/30 12:34:59;;;;;;;18.80;4.90;;;16.90;72.80;;;;;;4873701;29;20048;-77
2021/12/30 12:37:37;;;;;;;14.57;3.33;;;17.00;72.80;;;;;;4889782;29;20049;-80
2021/12/30 12:40:11;;;;;;;19.70;4.47;;;17.00;72.60;;;;;;4882066;29;20041;-77
2021/12/30 12:43:09;;;;;;;18.55;3.92;;;17.00;72.50;;;;;;4865105;29;20084;-77
2021/12/30 12:45:37;;;;;;;14.52;4.15;;;17.10;72.70;;;;;;4871817;29;20354;-76